Alvadore, Oregon
Current Conditions -  °F | °C
As of 8:54 PM on Wednesday 26 Nov 2014 (Local Time) from KEUG Reporting Station
Overcast Overcast  
Wind Chill: 11°   Ceiling: 14000
Heat Index: 11°   Visibility: 10mi
Dew Point:   Wind: 6mph
Humidity: 89%   Direction: 190°S
Pressure: 30.04"   Gusts: NA
Location:  44.13°N, 123.26°W
Report Text: KEUG 270454Z 19005KT 10SM OVC140 11/09 A3004 RMK AO2 SLP173 T01060089
Loading
Personal Weather Stations






























Interactive Weather Map New forecast layout! Learn more

10-Day Weather Forecast

Advertisements
Track Severe Weather on mobile